Time,TemperatureF,DewpointF,PressureIn,WindDirection,WindDirectionDegrees,WindSpeedMPH,WindSpeedGustMPH,Humidity,HourlyPrecipIn,Conditions,Clouds,dailyrainin,SolarRadiationWatts/m^2,SoftwareType,DateUTC
2013-03-24 00:00:00,34.6,31.1,30.06,NE,49,5.0,10.0,87,0.02,,---,0.02,0.00,VWS V14.01,2013-03-24 05:00:00,
2013-03-24 00:05:00,34.4,31.2,30.06,NNE,26,0.0,8.0,88,0.02,,---,0.00,0.00,VWS V14.01,2013-03-24 05:05:00,
2013-03-24 00:10:00,34.4,31.2,30.07,NE,48,3.0,7.0,88,0.02,,---,0.00,0.00,VWS V14.01,2013-03-24 05:10:00,
2013-03-24 00:14:00,34.4,31.2,30.07,NNE,15,1.0,7.0,88,0.03,,---,0.01,0.00,VWS V14.01,2013-03-24 05:14:00,
2013-03-24 00:19:00,34.4,31.2,30.06,NE,40,2.0,12.0,88,0.03,,---,0.01,0.00,VWS V14.01,2013-03-24 05:19:00,
2013-03-24 00:24:00,34.2,31.0,30.06,North,9,1.0,11.0,88,0.03,,---,0.01,0.00,VWS V14.01,2013-03-24 05:24:00,
2013-03-24 00:29:00,34.1,31.2,30.06,ENE,63,3.0,7.0,89,0.03,,---,0.01,0.00,VWS V14.01,2013-03-24 05:29:00,
2013-03-24 00:34:00,34.0,31.1,30.06,ENE,72,7.0,12.0,89,0.03,,---,0.01,0.00,VWS V14.01,2013-03-24 05:34:00,
2013-03-24 00:39:00,33.9,31.0,30.06,NE,44,6.0,11.0,89,0.03,,---,0.01,0.00,VWS V14.01,2013-03-24 05:39:00,
2013-03-24 00:44:00,33.8,30.9,30.05,NE,38,4.0,11.0,89,0.03,,---,0.02,0.00,VWS V14.01,2013-03-24 05:44:00,
2013-03-24 00:49:00,33.8,30.9,30.05,NE,37,3.0,9.0,89,0.03,,---,0.02,0.00,VWS V14.01,2013-03-24 05:49:00,
2013-03-24 00:54:00,33.8,31.2,30.05,ENE,58,6.0,9.0,90,0.03,,---,0.02,0.00,VWS V14.01,2013-03-24 05:54:00,
2013-03-24 00:59:00,33.7,30.8,30.05,NE,53,4.0,11.0,89,0.03,,---,0.02,0.00,VWS V14.01,2013-03-24 05:59:00,
2013-03-24 01:04:00,33.7,31.1,30.05,NNE,32,1.0,9.0,90,0.02,,---,0.02,0.00,VWS V14.01,2013-03-24 06:04:00,
2013-03-24 01:09:00,33.6,31.0,30.05,ENE,64,0.0,10.0,90,0.02,,---,0.02,0.00,VWS V14.01,2013-03-24 06:09:00,
2013-03-24 01:14:00,33.5,30.9,30.05,ENE,63,7.0,14.0,90,0.02,,---,0.02,0.00,VWS V14.01,2013-03-24 06:14:00,
2013-03-24 01:19:00,33.4,30.8,30.05,NE,40,3.0,9.0,90,0.01,,---,0.02,0.00,VWS V14.01,2013-03-24 06:19:00,
2013-03-24 01:24:00,33.4,30.8,30.05,NE,41,12.0,12.0,90,0.01,,---,0.02,0.00,VWS V14.01,2013-03-24 06:24:00,
2013-03-24 01:29:00,33.4,30.8,30.05,East,83,4.0,9.0,90,0.01,,---,0.02,0.00,VWS V14.01,2013-03-24 06:29:00,
2013-03-24 01:34:00,33.3,30.7,30.05,NE,36,3.0,10.0,90,0.01,,---,0.02,0.00,VWS V14.01,2013-03-24 06:34:00,
2013-03-24 01:39:00,33.3,30.7,30.04,NE,48,4.0,11.0,90,0.01,,---,0.02,0.00,VWS V14.01,2013-03-24 06:39:00,
2013-03-24 01:44:00,33.2,30.6,30.04,ENE,61,4.0,6.0,90,0.01,,---,0.02,0.00,VWS V14.01,2013-03-24 06:44:00,
2013-03-24 01:49:00,33.2,30.9,30.04,ENE,73,3.0,11.0,91,0.00,,---,0.02,0.00,VWS V14.01,2013-03-24 06:49:00,
2013-03-24 01:54:00,33.2,30.9,30.04,NE,46,1.0,7.0,91,0.00,,---,0.02,0.00,VWS V14.01,2013-03-24 06:54:00,
2013-03-24 01:59:00,33.1,30.8,30.03,NNE,17,4.0,7.0,91,0.00,,---,0.02,0.00,VWS V14.01,2013-03-24 06:59:00,
2013-03-24 02:04:00,33.1,30.8,30.03,ENE,59,4.0,6.0,91,0.00,,---,0.02,0.00,VWS V14.01,2013-03-24 07:04:00,
2013-03-24 02:09:00,33.0,30.7,30.02,ENE,61,0.0,9.0,91,0.00,,---,0.02,0.00,VWS V14.01,2013-03-24 07:09:00,
2013-03-24 02:14:00,33.0,30.7,30.02,NE,48,7.0,9.0,91,0.00,,---,0.02,0.00,VWS V14.01,2013-03-24 07:14:00,
2013-03-24 02:19:00,33.0,30.7,30.01,East,81,4.0,12.0,91,0.00,,---,0.02,0.00,VWS V14.01,2013-03-24 07:19:00,
2013-03-24 02:24:00,33.0,30.7,30.01,NNE,25,4.0,9.0,91,0.00,,---,0.02,0.00,VWS V14.01,2013-03-24 07:24:00,
2013-03-24 02:29:00,32.9,30.6,30.00,ENE,66,3.0,10.0,91,0.00,,---,0.02,0.00,VWS V14.01,2013-03-24 07:29:00,
2013-03-24 02:34:00,32.9,30.6,30.00,NNE,21,0.0,9.0,91,0.00,,---,0.02,0.00,VWS V14.01,2013-03-24 07:34:00,
2013-03-24 02:39:00,32.9,30.6,30.00,NE,42,2.0,7.0,91,0.00,,---,0.02,0.00,VWS V14.01,2013-03-24 07:39:00,
2013-03-24 02:44:00,32.9,30.6,30.00,ENE,59,9.0,10.0,91,0.00,,---,0.02,0.00,VWS V14.01,2013-03-24 07:44:00,
2013-03-24 02:49:00,32.8,30.5,30.00,NE,45,7.0,10.0,91,0.00,,---,0.02,0.00,VWS V14.01,2013-03-24 07:49:00,
2013-03-24 02:54:00,32.8,30.5,29.99,NE,40,3.0,10.0,91,0.00,,---,0.02,0.00,VWS V14.01,2013-03-24 07:54:00,
2013-03-24 02:59:00,32.7,30.4,29.97,ENE,57,8.0,15.0,91,0.00,,---,0.02,0.00,VWS V14.01,2013-03-24 07:59:00,
2013-03-24 03:04:00,32.6,30.3,29.98,NE,55,13.0,13.0,91,0.00,,---,0.02,0.00,VWS V14.01,2013-03-24 08:04:00,
2013-03-24 03:09:00,32.6,30.3,29.97,NE,36,5.0,13.0,91,0.00,,---,0.02,0.00,VWS V14.01,2013-03-24 08:09:00,
2013-03-24 03:14:00,32.5,30.2,29.97,ESE,113,5.0,13.0,91,0.00,,---,0.02,0.00,VWS V14.01,2013-03-24 08:14:00,
2013-03-24 03:19:00,32.4,30.1,29.96,ENE,69,5.0,11.0,91,0.00,,---,0.02,0.00,VWS V14.01,2013-03-24 08:19:00,
2013-03-24 03:24:00,32.3,30.0,29.97,NE,39,2.0,9.0,91,0.00,,---,0.02,0.00,VWS V14.01,2013-03-24 08:24:00,
2013-03-24 03:29:00,32.3,30.0,29.97,East,82,2.0,12.0,91,0.00,,---,0.02,0.00,VWS V14.01,2013-03-24 08:29:00,
2013-03-24 03:34:00,32.2,29.9,29.97,ENE,69,5.0,13.0,91,0.00,,---,0.02,0.00,VWS V14.01,2013-03-24 08:34:00,
2013-03-24 03:39:00,32.1,29.8,29.97,ENE,58,10.0,10.0,91,0.00,,---,0.02,0.00,VWS V14.01,2013-03-24 08:39:00,
2013-03-24 03:44:00,31.9,29.6,29.97,East,86,4.0,13.0,91,0.00,,---,0.02,0.00,VWS V14.01,2013-03-24 08:44:00,
2013-03-24 03:49:00,31.8,29.5,29.98,East,83,0.0,11.0,91,0.00,,---,0.02,0.00,VWS V14.01,2013-03-24 08:49:00,
2013-03-24 03:54:00,31.7,29.4,29.98,NE,50,4.0,10.0,91,0.00,,---,0.02,0.00,VWS V14.01,2013-03-24 08:54:00,
2013-03-24 03:59:00,31.6,29.3,29.98,ENE,65,5.0,10.0,91,0.00,,---,0.02,0.00,VWS V14.01,2013-03-24 08:59:00,
2013-03-24 04:04:00,31.5,29.2,29.98,NE,52,2.0,10.0,91,0.00,,---,0.02,0.00,VWS V14.01,2013-03-24 09:04:00,
2013-03-24 04:09:00,31.5,29.2,29.98,East,86,9.0,11.0,91,0.00,,---,0.02,0.00,VWS V14.01,2013-03-24 09:09:00,
2013-03-24 04:14:00,31.5,29.2,29.97,NE,38,3.0,11.0,91,0.00,,---,0.02,0.00,VWS V14.01,2013-03-24 09:14:00,
2013-03-24 04:19:00,31.4,29.1,29.97,ENE,63,9.0,12.0,91,0.00,,---,0.02,0.00,VWS V14.01,2013-03-24 09:19:00,
2013-03-24 04:24:00,31.3,29.0,29.97,East,80,3.0,7.0,91,0.00,,---,0.02,0.00,VWS V14.01,2013-03-24 09:24:00,
2013-03-24 04:29:00,31.3,29.0,29.97,NNE,26,5.0,9.0,91,0.00,,---,0.02,0.00,VWS V14.01,2013-03-24 09:29:00,
2013-03-24 04:34:00,31.3,29.0,29.97,NNE,22,4.0,11.0,91,0.00,,---,0.02,0.00,VWS V14.01,2013-03-24 09:34:00,
2013-03-24 04:39:00,31.2,28.9,29.97,NE,52,3.0,12.0,91,0.00,,---,0.02,0.00,VWS V14.01,2013-03-24 09:39:00,
2013-03-24 04:44:00,31.2,28.9,29.97,East,79,3.0,10.0,91,0.00,,---,0.02,0.00,VWS V14.01,2013-03-24 09:44:00,
2013-03-24 04:49:00,31.2,28.9,29.98,NE,55,5.0,10.0,91,0.00,,---,0.02,0.00,VWS V14.01,2013-03-24 09:49:00,
2013-03-24 04:54:00,31.2,28.9,29.97,ENE,78,5.0,11.0,91,0.00,,---,0.02,0.00,VWS V14.01,2013-03-24 09:54:00,
2013-03-24 04:59:00,31.2,28.9,29.97,ENE,60,9.0,13.0,91,0.00,,---,0.02,0.00,VWS V14.01,2013-03-24 09:59:00,
2013-03-24 05:04:00,31.1,28.8,29.95,NE,41,2.0,11.0,91,0.00,,---,0.02,0.00,VWS V14.01,2013-03-24 10:04:00,
2013-03-24 05:09:00,31.1,28.8,29.94,NNE,31,5.0,13.0,91,0.00,,---,0.02,0.00,VWS V14.01,2013-03-24 10:09:00,
2013-03-24 05:14:00,31.1,28.8,29.93,ENE,67,7.0,11.0,91,0.00,,---,0.02,0.00,VWS V14.01,2013-03-24 10:14:00,
2013-03-24 05:19:00,31.1,28.8,29.93,NE,46,1.0,12.0,91,0.00,,---,0.02,0.00,VWS V14.01,2013-03-24 10:19:00,
2013-03-24 05:24:00,31.2,28.9,29.93,NE,53,4.0,12.0,91,0.00,,---,0.02,0.00,VWS V14.01,2013-03-24 10:24:00,
2013-03-24 05:29:00,31.2,28.9,29.92,ENE,57,3.0,11.0,91,0.00,,---,0.02,0.00,VWS V14.01,2013-03-24 10:29:00,
2013-03-24 05:34:00,31.2,28.9,29.91,North,360,6.0,10.0,91,0.00,,---,0.02,0.00,VWS V14.01,2013-03-24 10:34:00,
2013-03-24 05:39:00,31.1,28.8,29.92,NE,37,11.0,14.0,91,0.00,,---,0.02,0.00,VWS V14.01,2013-03-24 10:39:00,
2013-03-24 05:44:00,31.1,28.8,29.91,ENE,67,10.0,12.0,91,0.00,,---,0.02,0.00,VWS V14.01,2013-03-24 10:44:00,
2013-03-24 05:49:00,31.1,28.8,29.91,ENE,64,5.0,15.0,91,0.00,,---,0.02,0.00,VWS V14.01,2013-03-24 10:49:00,
2013-03-24 05:54:00,31.1,28.8,29.91,NE,37,12.0,13.0,91,0.00,,---,0.02,0.00,VWS V14.01,2013-03-24 10:54:00,
2013-03-24 05:59:00,31.1,28.8,29.91,NE,52,5.0,11.0,91,0.00,,---,0.02,0.00,VWS V14.01,2013-03-24 10:59:00,
2013-03-24 06:04:00,31.1,28.8,29.92,NNE,33,0.0,12.0,91,0.00,,---,0.02,0.00,VWS V14.01,2013-03-24 11:04:00,
2013-03-24 06:09:00,31.1,28.8,29.92,ENE,65,5.0,11.0,91,0.00,,---,0.02,0.00,VWS V14.01,2013-03-24 11:09:00,
2013-03-24 06:14:00,31.1,28.8,29.91,ENE,67,4.0,15.0,91,0.00,,---,0.02,0.00,VWS V14.01,2013-03-24 11:14:00,
2013-03-24 06:19:00,31.0,28.7,29.90,ENE,72,4.0,11.0,91,0.00,,---,0.02,0.00,VWS V14.01,2013-03-24 11:19:00,
2013-03-24 06:24:00,31.0,28.7,29.89,NE,52,3.0,14.0,91,0.00,,---,0.02,0.00,VWS V14.01,2013-03-24 11:24:00,
2013-03-24 06:29:00,31.0,28.7,29.88,East,81,7.0,16.0,91,0.00,,---,0.02,0.00,VWS V14.01,2013-03-24 11:29:00,
2013-03-24 06:34:00,30.9,28.6,29.88,NNE,18,3.0,14.0,91,0.00,,---,0.02,0.00,VWS V14.01,2013-03-24 11:34:00,
2013-03-24 06:38:00,30.9,28.6,29.88,ENE,76,5.0,13.0,91,0.00,,---,0.02,0.00,VWS V14.01,2013-03-24 11:38:00,
2013-03-24 06:43:00,30.8,28.5,29.88,NE,41,6.0,11.0,91,0.00,,---,0.02,0.00,VWS V14.01,2013-03-24 11:43:00,
2013-03-24 06:48:00,30.8,28.5,29.88,NE,51,7.0,13.0,91,0.00,,---,0.02,0.00,VWS V14.01,2013-03-24 11:48:00,
2013-03-24 06:54:00,30.7,28.4,29.88,NE,52,6.0,14.0,91,0.00,,---,0.02,0.00,VWS V14.01,2013-03-24 11:54:00,
2013-03-24 06:59:00,30.7,28.4,29.88,NE,47,3.0,13.0,91,0.00,,---,0.02,0.00,VWS V14.01,2013-03-24 11:59:00,
2013-03-24 07:04:00,30.6,28.3,29.87,ENE,65,3.0,14.0,91,0.00,,---,0.02,0.00,VWS V14.01,2013-03-24 12:04:00,
2013-03-24 07:09:00,30.6,28.3,29.87,NE,47,3.0,15.0,91,0.00,,---,0.02,0.00,VWS V14.01,2013-03-24 12:09:00,
2013-03-24 07:14:00,30.6,28.3,29.86,NE,53,6.0,11.0,91,0.00,,---,0.02,0.00,VWS V14.01,2013-03-24 12:14:00,
2013-03-24 07:18:00,30.6,28.3,29.87,NE,56,2.0,7.0,91,0.00,,---,0.02,0.00,VWS V14.01,2013-03-24 12:18:00,
2013-03-24 07:23:00,30.5,28.2,29.88,NE,52,4.0,12.0,91,0.00,,---,0.02,0.00,VWS V14.01,2013-03-24 12:23:00,
2013-03-24 07:28:00,30.6,28.3,29.88,ENE,74,7.0,14.0,91,0.00,,---,0.02,0.00,VWS V14.01,2013-03-24 12:28:00,
2013-03-24 07:33:00,30.5,28.2,29.88,NE,43,4.0,14.0,91,0.00,,---,0.02,0.00,VWS V14.01,2013-03-24 12:33:00,
2013-03-24 07:38:00,30.5,28.2,29.88,NNE,20,7.0,9.0,91,0.00,,---,0.02,0.00,VWS V14.01,2013-03-24 12:38:00,
2013-03-24 07:43:00,30.4,28.1,29.88,NE,44,3.0,10.0,91,0.00,,---,0.02,0.00,VWS V14.01,2013-03-24 12:43:00,
2013-03-24 07:48:00,30.4,28.1,29.89,NE,51,1.0,12.0,91,0.00,,---,0.02,0.00,VWS V14.01,2013-03-24 12:48:00,
2013-03-24 07:53:00,30.4,28.1,29.90,NE,34,0.0,6.0,91,0.00,,---,0.02,0.00,VWS V14.01,2013-03-24 12:53:00,
2013-03-24 07:58:00,30.4,28.1,29.90,NE,45,0.0,6.0,91,0.00,,---,0.02,0.00,VWS V14.01,2013-03-24 12:58:00,
2013-03-24 08:03:00,30.4,28.1,29.91,North,5,5.0,5.0,91,0.00,,---,0.02,0.00,VWS V14.01,2013-03-24 13:03:00,
2013-03-24 08:08:00,30.4,28.1,29.92,NW,305,0.0,5.0,91,0.00,,---,0.02,0.00,VWS V14.01,2013-03-24 13:08:00,
2013-03-24 08:13:00,30.3,28.0,29.92,NNE,15,0.0,5.0,91,0.00,,---,0.02,0.00,VWS V14.01,2013-03-24 13:13:00,
2013-03-24 08:18:00,30.3,28.0,29.92,NNW,337,2.0,6.0,91,0.00,,---,0.02,0.00,VWS V14.01,2013-03-24 13:18:00,
2013-03-24 08:23:00,30.3,28.0,29.92,North,355,4.0,4.0,91,0.00,,---,0.02,5.00,VWS V14.01,2013-03-24 13:23:00,
2013-03-24 08:28:00,30.3,28.0,29.92,North,351,4.0,5.0,91,0.00,,---,0.02,5.00,VWS V14.01,2013-03-24 13:28:00,
2013-03-24 08:33:00,30.2,27.9,29.92,North,360,1.0,4.0,91,0.00,,---,0.02,7.00,VWS V14.01,2013-03-24 13:33:00,
2013-03-24 08:38:00,30.2,27.9,29.92,NNW,346,0.0,6.0,91,0.00,,---,0.02,9.00,VWS V14.01,2013-03-24 13:38:00,
2013-03-24 08:43:00,30.2,27.9,29.92,North,351,3.0,5.0,91,0.00,,---,0.02,11.00,VWS V14.01,2013-03-24 13:43:00,
2013-03-24 08:48:00,30.2,28.2,29.92,NE,34,4.0,4.0,92,0.00,,---,0.02,11.00,VWS V14.01,2013-03-24 13:48:00,
2013-03-24 08:53:00,30.2,28.2,29.91,North,355,2.0,5.0,92,0.00,,---,0.02,12.00,VWS V14.01,2013-03-24 13:53:00,
2013-03-24 08:58:00,30.1,28.1,29.90,NNE,17,4.0,10.0,92,0.00,,---,0.02,12.00,VWS V14.01,2013-03-24 13:58:00,
2013-03-24 09:03:00,30.1,28.1,29.90,NNE,31,0.0,7.0,92,0.00,,---,0.02,14.00,VWS V14.01,2013-03-24 14:03:00,
2013-03-24 09:08:00,30.0,28.0,29.89,NE,39,8.0,10.0,92,0.00,,---,0.02,19.00,VWS V14.01,2013-03-24 14:08:00,
2013-03-24 09:13:00,30.0,27.7,29.90,North,349,3.0,10.0,91,0.00,,---,0.02,28.00,VWS V14.01,2013-03-24 14:13:00,
2013-03-24 09:18:00,30.0,27.7,29.89,NE,38,5.0,9.0,91,0.00,,---,0.02,35.00,VWS V14.01,2013-03-24 14:18:00,
2013-03-24 09:23:00,30.0,28.0,29.89,NNE,20,3.0,7.0,92,0.00,,---,0.02,40.00,VWS V14.01,2013-03-24 14:23:00,
2013-03-24 09:28:00,30.0,28.0,29.88,North,10,2.0,10.0,92,0.00,,---,0.02,42.00,VWS V14.01,2013-03-24 14:28:00,
2013-03-24 09:33:00,30.1,28.1,29.88,NNE,28,4.0,15.0,92,0.00,,---,0.02,42.00,VWS V14.01,2013-03-24 14:33:00,
2013-03-24 09:38:00,30.1,28.1,29.88,NNE,29,3.0,11.0,92,0.00,,---,0.02,44.00,VWS V14.01,2013-03-24 14:38:00,
2013-03-24 09:43:00,30.1,28.1,29.88,North,11,4.0,12.0,92,0.00,,---,0.02,53.00,VWS V14.01,2013-03-24 14:43:00,
2013-03-24 09:48:00,30.1,28.1,29.88,NNE,22,4.0,12.0,92,0.00,,---,0.02,60.00,VWS V14.01,2013-03-24 14:48:00,
2013-03-24 09:53:00,30.1,28.1,29.89,NNE,25,4.0,10.0,92,0.00,,---,0.02,67.00,VWS V14.01,2013-03-24 14:53:00,
2013-03-24 09:58:00,30.2,28.2,29.89,NNE,33,0.0,10.0,92,0.00,,---,0.02,76.00,VWS V14.01,2013-03-24 14:58:00,
2013-03-24 10:03:00,30.3,28.3,29.89,NNW,337,1.0,7.0,92,0.00,,---,0.02,84.00,VWS V14.01,2013-03-24 15:03:00,
2013-03-24 10:08:00,30.4,28.4,29.90,North,360,1.0,7.0,92,0.00,,---,0.02,90.00,VWS V14.01,2013-03-24 15:08:00,
2013-03-24 10:13:00,30.5,28.5,29.90,North,355,3.0,6.0,92,0.00,,---,0.02,86.00,VWS V14.01,2013-03-24 15:13:00,
2013-03-24 10:18:00,30.6,28.6,29.90,NE,42,2.0,6.0,92,0.00,,---,0.02,83.00,VWS V14.01,2013-03-24 15:18:00,
2013-03-24 10:23:00,30.6,28.6,29.89,NNE,26,0.0,9.0,92,0.00,,---,0.02,86.00,VWS V14.01,2013-03-24 15:23:00,
2013-03-24 10:28:00,30.7,28.7,29.89,North,350,0.0,6.0,92,0.00,,---,0.02,90.00,VWS V14.01,2013-03-24 15:28:00,
2013-03-24 10:33:00,30.7,28.7,29.89,North,360,1.0,8.0,92,0.00,,---,0.02,93.00,VWS V14.01,2013-03-24 15:33:00,
2013-03-24 10:38:00,30.7,28.7,29.89,NNW,348,4.0,9.0,92,0.00,,---,0.02,98.00,VWS V14.01,2013-03-24 15:38:00,
2013-03-24 10:43:00,30.8,28.8,29.89,North,10,5.0,8.0,92,0.00,,---,0.02,104.00,VWS V14.01,2013-03-24 15:43:00,
2013-03-24 10:48:00,30.8,28.8,29.89,NNE,19,4.0,9.0,92,0.00,,---,0.02,109.00,VWS V14.01,2013-03-24 15:48:00,
2013-03-24 10:53:00,30.9,28.9,29.89,North,9,4.0,10.0,92,0.00,,---,0.02,120.00,VWS V14.01,2013-03-24 15:53:00,
2013-03-24 10:58:00,30.9,28.9,29.89,NNW,334,6.0,10.0,92,0.00,,---,0.02,127.00,VWS V14.01,2013-03-24 15:58:00,
2013-03-24 11:03:00,31.0,29.0,29.89,NNE,25,2.0,7.0,92,0.00,,---,0.02,130.00,VWS V14.01,2013-03-24 16:03:00,
2013-03-24 11:08:00,31.0,29.0,29.89,ENE,67,4.0,12.0,92,0.00,,---,0.02,132.00,VWS V14.01,2013-03-24 16:08:00,
2013-03-24 11:13:00,31.0,29.0,29.89,NNW,343,3.0,9.0,92,0.00,,---,0.02,127.00,VWS V14.01,2013-03-24 16:13:00,
2013-03-24 11:18:00,31.1,29.0,29.88,NNE,30,1.0,7.0,92,0.00,,---,0.02,128.00,VWS V14.01,2013-03-24 16:18:00,
2013-03-24 11:23:00,31.1,29.0,29.88,NE,40,2.0,6.0,92,0.00,,---,0.02,130.00,VWS V14.01,2013-03-24 16:23:00,
2013-03-24 11:28:00,31.1,29.0,29.88,NNE,13,3.0,11.0,92,0.00,,---,0.02,135.00,VWS V14.01,2013-03-24 16:28:00,
2013-03-24 11:33:00,31.1,29.0,29.88,NNW,344,6.0,8.0,92,0.00,,---,0.02,128.00,VWS V14.01,2013-03-24 16:33:00,
2013-03-24 11:38:00,31.0,29.0,29.87,North,5,5.0,10.0,92,0.00,,---,0.02,139.00,VWS V14.01,2013-03-24 16:38:00,
2013-03-24 11:43:00,31.1,29.0,29.87,NNW,327,3.0,13.0,92,0.00,,---,0.02,137.00,VWS V14.01,2013-03-24 16:43:00,
2013-03-24 11:48:00,31.1,29.0,29.87,NNW,336,11.0,11.0,92,0.00,,---,0.02,135.00,VWS V14.01,2013-03-24 16:48:00,
2013-03-24 11:53:00,31.1,29.0,29.88,North,360,12.0,12.0,92,0.00,,---,0.02,146.00,VWS V14.01,2013-03-24 16:53:00,
2013-03-24 11:58:00,31.2,29.1,29.88,NNE,24,2.0,10.0,92,0.00,,---,0.02,144.00,VWS V14.01,2013-03-24 16:58:00,
2013-03-24 12:03:00,31.2,29.1,29.88,North,355,7.0,7.0,92,0.00,,---,0.02,151.00,VWS V14.01,2013-03-24 17:03:00,
2013-03-24 12:08:00,31.2,29.1,29.87,North,355,9.0,12.0,92,0.00,,---,0.02,137.00,VWS V14.01,2013-03-24 17:08:00,
2013-03-24 12:13:00,31.2,29.1,29.87,North,355,4.0,9.0,92,0.00,,---,0.02,137.00,VWS V14.01,2013-03-24 17:13:00,
2013-03-24 12:18:00,31.2,29.1,29.86,North,5,5.0,13.0,92,0.00,,---,0.02,142.00,VWS V14.01,2013-03-24 17:18:00,
2013-03-24 12:23:00,31.2,29.1,29.86,NNW,337,4.0,7.0,92,0.00,,---,0.02,121.00,VWS V14.01,2013-03-24 17:23:00,
2013-03-24 12:28:00,31.2,29.1,29.86,North,11,7.0,7.0,92,0.00,,---,0.02,148.00,VWS V14.01,2013-03-24 17:28:00,
2013-03-24 12:33:00,31.3,29.2,29.85,NNW,348,7.0,7.0,92,0.00,,---,0.02,130.00,VWS V14.01,2013-03-24 17:33:00,
2013-03-24 12:38:00,31.3,29.2,29.85,North,360,7.0,10.0,92,0.00,,---,0.02,144.00,VWS V14.01,2013-03-24 17:38:00,
2013-03-24 12:43:00,31.4,29.4,29.85,NNW,330,5.0,12.0,92,0.00,,---,0.02,142.00,VWS V14.01,2013-03-24 17:43:00,
2013-03-24 12:48:00,31.4,29.4,29.85,North,355,3.0,7.0,92,0.00,,---,0.02,149.00,VWS V14.01,2013-03-24 17:48:00,
2013-03-24 12:53:00,31.3,29.2,29.85,ENE,65,5.0,12.0,92,0.00,,---,0.02,165.00,VWS V14.01,2013-03-24 17:53:00,
2013-03-24 12:58:00,31.3,29.2,29.85,North,355,1.0,12.0,92,0.00,,---,0.02,160.00,VWS V14.01,2013-03-24 17:58:00,
2013-03-24 13:03:00,31.3,29.2,29.85,NNW,327,4.0,12.0,92,0.00,,---,0.02,169.00,VWS V14.01,2013-03-24 18:03:00,
2013-03-24 13:08:00,31.3,29.2,29.85,North,355,3.0,7.0,92,0.00,,---,0.02,163.00,VWS V14.01,2013-03-24 18:08:00,
2013-03-24 13:13:00,31.3,29.2,29.85,NW,319,3.0,12.0,92,0.00,,---,0.02,165.00,VWS V14.01,2013-03-24 18:13:00,
2013-03-24 13:18:00,31.2,29.1,29.85,NNE,17,5.0,10.0,92,0.00,,---,0.02,156.00,VWS V14.01,2013-03-24 18:18:00,
2013-03-24 13:23:00,31.2,29.1,29.85,NNE,23,4.0,14.0,92,0.00,,---,0.02,178.00,VWS V14.01,2013-03-24 18:23:00,
2013-03-24 13:28:00,31.2,29.1,29.85,NW,325,5.0,6.0,92,0.00,,---,0.02,188.00,VWS V14.01,2013-03-24 18:28:00,
2013-03-24 13:33:00,31.2,29.1,29.85,North,351,2.0,7.0,92,0.00,,---,0.02,155.00,VWS V14.01,2013-03-24 18:33:00,
2013-03-24 13:38:00,31.2,29.1,29.85,NNW,328,13.0,13.0,92,0.00,,---,0.02,169.00,VWS V14.01,2013-03-24 18:38:00,
2013-03-24 13:43:00,31.2,29.1,29.85,North,349,4.0,12.0,92,0.00,,---,0.02,151.00,VWS V14.01,2013-03-24 18:43:00,
2013-03-24 13:48:00,31.2,29.1,29.85,NW,315,6.0,15.0,92,0.00,,---,0.02,163.00,VWS V14.01,2013-03-24 18:48:00,
2013-03-24 13:53:00,31.2,29.1,29.85,NNW,330,6.0,14.0,92,0.00,,---,0.02,162.00,VWS V14.01,2013-03-24 18:53:00,
2013-03-24 13:58:00,31.2,29.1,29.85,NNW,345,5.0,15.0,92,0.00,,---,0.02,174.00,VWS V14.01,2013-03-24 18:58:00,
2013-03-24 14:03:00,31.1,29.0,29.85,NW,320,5.0,7.0,92,0.00,,---,0.02,148.00,VWS V14.01,2013-03-24 19:03:00,
2013-03-24 14:08:00,31.2,29.1,29.85,WNW,287,7.0,9.0,92,0.00,,---,0.02,160.00,VWS V14.01,2013-03-24 19:08:00,
2013-03-24 14:13:00,31.2,29.1,29.85,North,11,6.0,13.0,92,0.00,,---,0.02,144.00,VWS V14.01,2013-03-24 19:13:00,
2013-03-24 14:18:00,31.2,29.1,29.85,NNE,21,4.0,7.0,92,0.00,,---,0.02,156.00,VWS V14.01,2013-03-24 19:18:00,
2013-03-24 14:23:00,31.2,29.1,29.85,North,355,3.0,8.0,92,0.00,,---,0.02,156.00,VWS V14.01,2013-03-24 19:23:00,
2013-03-24 14:28:00,31.2,29.1,29.85,NNW,337,6.0,9.0,92,0.00,,---,0.02,162.00,VWS V14.01,2013-03-24 19:28:00,
2013-03-24 14:33:00,31.2,29.1,29.84,NW,314,6.0,10.0,92,0.00,,---,0.02,163.00,VWS V14.01,2013-03-24 19:33:00,
2013-03-24 14:38:00,31.2,29.1,29.84,NW,313,4.0,9.0,92,0.00,,---,0.02,165.00,VWS V14.01,2013-03-24 19:38:00,
2013-03-24 14:43:00,31.2,29.1,29.84,NW,325,2.0,11.0,92,0.00,,---,0.02,172.00,VWS V14.01,2013-03-24 19:43:00,
2013-03-24 14:48:00,31.2,29.1,29.84,NNW,346,4.0,13.0,92,0.00,,---,0.02,172.00,VWS V14.01,2013-03-24 19:48:00,
2013-03-24 14:53:00,31.2,29.1,29.84,NW,313,5.0,7.0,92,0.00,,---,0.02,183.00,VWS V14.01,2013-03-24 19:53:00,
2013-03-24 14:58:00,31.2,29.1,29.84,NW,310,5.0,10.0,92,0.00,,---,0.02,193.00,VWS V14.01,2013-03-24 19:58:00,
2013-03-24 15:03:00,31.3,29.2,29.85,NW,315,9.0,9.0,92,0.00,,---,0.02,183.00,VWS V14.01,2013-03-24 20:03:00,
2013-03-24 15:08:00,31.3,29.2,29.85,NW,325,3.0,10.0,92,0.00,,---,0.02,186.00,VWS V14.01,2013-03-24 20:08:00,
2013-03-24 15:13:00,31.4,29.4,29.84,NW,322,8.0,12.0,92,0.00,,---,0.02,181.00,VWS V14.01,2013-03-24 20:13:00,
2013-03-24 15:18:00,31.3,29.2,29.85,NNW,338,9.0,12.0,92,0.00,,---,0.02,190.00,VWS V14.01,2013-03-24 20:18:00,
2013-03-24 15:23:00,31.4,29.4,29.84,NW,319,3.0,16.0,92,0.00,,---,0.02,183.00,VWS V14.01,2013-03-24 20:23:00,
2013-03-24 15:28:00,31.4,29.4,29.85,NNW,333,4.0,5.0,92,0.00,,---,0.02,165.00,VWS V14.01,2013-03-24 20:28:00,
2013-03-24 15:33:00,31.5,29.5,29.85,NW,326,5.0,13.0,92,0.00,,---,0.02,153.00,VWS V14.01,2013-03-24 20:33:00,
2013-03-24 15:38:00,31.4,29.4,29.85,NW,312,4.0,15.0,92,0.00,,---,0.02,165.00,VWS V14.01,2013-03-24 20:38:00,
2013-03-24 15:43:00,31.4,29.4,29.85,WNW,288,4.0,12.0,92,0.00,,---,0.02,144.00,VWS V14.01,2013-03-24 20:43:00,
2013-03-24 15:48:00,31.4,29.4,29.85,NW,322,3.0,13.0,92,0.00,,---,0.02,134.00,VWS V14.01,2013-03-24 20:48:00,
2013-03-24 15:53:00,31.5,29.5,29.85,NNW,331,2.0,9.0,92,0.00,,---,0.02,134.00,VWS V14.01,2013-03-24 20:53:00,
2013-03-24 15:58:00,31.5,29.5,29.85,North,355,5.0,10.0,92,0.00,,---,0.02,132.00,VWS V14.01,2013-03-24 20:58:00,
2013-03-24 16:03:00,31.5,29.5,29.86,NNE,17,4.0,10.0,92,0.00,,---,0.02,118.00,VWS V14.01,2013-03-24 21:03:00,
2013-03-24 16:08:00,31.6,29.5,29.86,NW,322,9.0,11.0,92,0.00,,---,0.02,118.00,VWS V14.01,2013-03-24 21:08:00,
2013-03-24 16:13:00,31.6,29.5,29.86,NW,319,5.0,12.0,92,0.00,,---,0.02,109.00,VWS V14.01,2013-03-24 21:13:00,
2013-03-24 16:18:00,31.6,29.5,29.86,NW,311,4.0,11.0,92,0.00,,---,0.02,113.00,VWS V14.01,2013-03-24 21:18:00,
2013-03-24 16:23:00,31.6,29.5,29.86,NW,318,2.0,5.0,92,0.00,,---,0.02,93.00,VWS V14.01,2013-03-24 21:23:00,
2013-03-24 16:28:00,31.6,29.5,29.87,NNW,330,0.0,5.0,92,0.00,,---,0.02,83.00,VWS V14.01,2013-03-24 21:28:00,
2013-03-24 16:33:00,31.7,29.6,29.87,NW,314,4.0,12.0,92,0.00,,---,0.02,77.00,VWS V14.01,2013-03-24 21:33:00,
2013-03-24 16:38:00,31.6,29.5,29.87,NW,317,5.0,8.0,92,0.00,,---,0.02,81.00,VWS V14.01,2013-03-24 21:38:00,
2013-03-24 16:43:00,31.6,29.5,29.87,NW,310,3.0,10.0,92,0.00,,---,0.02,77.00,VWS V14.01,2013-03-24 21:43:00,
2013-03-24 16:48:00,31.6,29.5,29.87,WNW,296,4.0,11.0,92,0.00,,---,0.02,70.00,VWS V14.01,2013-03-24 21:48:00,
2013-03-24 16:53:00,31.5,29.5,29.87,NW,321,4.0,10.0,92,0.00,,---,0.02,76.00,VWS V14.01,2013-03-24 21:53:00,
2013-03-24 16:58:00,31.5,29.5,29.88,NNW,330,5.0,7.0,92,0.00,,---,0.02,77.00,VWS V14.01,2013-03-24 21:58:00,
2013-03-24 17:03:00,31.5,29.5,29.88,WNW,286,2.0,7.0,92,0.00,,---,0.02,67.00,VWS V14.01,2013-03-24 22:03:00,
2013-03-24 17:08:00,31.5,29.5,29.88,NW,326,0.0,8.0,92,0.00,,---,0.02,69.00,VWS V14.01,2013-03-24 22:08:00,
2013-03-24 17:13:00,31.5,29.5,29.88,NNW,344,13.0,13.0,92,0.00,,---,0.02,72.00,VWS V14.01,2013-03-24 22:13:00,
2013-03-24 17:18:00,31.5,29.5,29.88,WNW,300,5.0,10.0,92,0.00,,---,0.02,60.00,VWS V14.01,2013-03-24 22:18:00,
2013-03-24 17:23:00,31.5,29.5,29.88,NW,316,3.0,9.0,92,0.00,,---,0.02,67.00,VWS V14.01,2013-03-24 22:23:00,
2013-03-24 17:28:00,31.5,29.5,29.89,NNW,329,7.0,9.0,92,0.00,,---,0.02,62.00,VWS V14.01,2013-03-24 22:28:00,
2013-03-24 17:33:00,31.6,29.5,29.89,NW,315,4.0,12.0,92,0.00,,---,0.02,62.00,VWS V14.01,2013-03-24 22:33:00,
2013-03-24 17:38:00,31.6,29.5,29.89,NW,307,6.0,6.0,92,0.00,,---,0.02,60.00,VWS V14.01,2013-03-24 22:38:00,
2013-03-24 17:43:00,31.6,29.5,29.89,NNE,24,5.0,10.0,92,0.00,,---,0.02,54.00,VWS V14.01,2013-03-24 22:43:00,
2013-03-24 17:48:00,31.6,29.8,29.89,NNW,329,5.0,7.0,93,0.00,,---,0.02,54.00,VWS V14.01,2013-03-24 22:48:00,
2013-03-24 17:53:00,31.6,29.8,29.90,NW,317,1.0,6.0,93,0.00,,---,0.02,58.00,VWS V14.01,2013-03-24 22:53:00,
2013-03-24 17:58:00,31.7,29.9,29.90,NW,321,11.0,11.0,93,0.00,,---,0.02,49.00,VWS V14.01,2013-03-24 22:58:00,
2013-03-24 18:03:00,31.7,29.9,29.90,NW,313,2.0,10.0,93,0.00,,---,0.02,49.00,VWS V14.01,2013-03-24 23:03:00,
2013-03-24 18:08:00,31.7,29.9,29.90,NW,307,4.0,11.0,93,0.00,,---,0.02,46.00,VWS V14.01,2013-03-24 23:08:00,
2013-03-24 18:13:00,31.7,29.9,29.90,West,277,4.0,10.0,93,0.00,,---,0.02,35.00,VWS V14.01,2013-03-24 23:13:00,
2013-03-24 18:18:00,31.7,29.9,29.90,NNW,330,3.0,11.0,93,0.00,,---,0.02,32.00,VWS V14.01,2013-03-24 23:18:00,
2013-03-24 18:23:00,31.7,29.9,29.90,NW,320,7.0,7.0,93,0.00,,---,0.02,25.00,VWS V14.01,2013-03-24 23:23:00,
2013-03-24 18:28:00,31.7,29.9,29.91,NW,314,2.0,10.0,93,0.00,,---,0.02,23.00,VWS V14.01,2013-03-24 23:28:00,
2013-03-24 18:33:00,31.7,29.9,29.91,NW,310,3.0,9.0,93,0.00,,---,0.02,23.00,VWS V14.01,2013-03-24 23:33:00,
2013-03-24 18:38:00,31.6,29.8,29.91,WNW,300,4.0,9.0,93,0.00,,---,0.02,19.00,VWS V14.01,2013-03-24 23:38:00,
2013-03-24 18:43:00,31.6,29.8,29.92,NW,310,3.0,6.0,93,0.00,,---,0.02,18.00,VWS V14.01,2013-03-24 23:43:00,
2013-03-24 18:48:00,31.6,29.8,29.92,NNW,327,2.0,8.0,93,0.00,,---,0.02,16.00,VWS V14.01,2013-03-24 23:48:00,
2013-03-24 18:53:00,31.7,29.9,29.92,WNW,294,0.0,6.0,93,0.00,,---,0.02,14.00,VWS V14.01,2013-03-24 23:53:00,
2013-03-24 18:58:00,31.6,29.8,29.92,NW,322,3.0,9.0,93,0.00,,---,0.02,11.00,VWS V14.01,2013-03-24 23:58:00,
2013-03-24 19:03:00,31.6,29.8,29.93,WNW,301,3.0,10.0,93,0.00,,---,0.02,7.00,VWS V14.01,2013-03-25 00:03:00,
2013-03-24 19:08:00,31.6,29.8,29.93,NNW,336,9.0,10.0,93,0.00,,---,0.02,5.00,VWS V14.01,2013-03-25 00:08:00,
2013-03-24 19:13:00,31.6,29.8,29.93,NW,304,2.0,7.0,93,0.00,,---,0.02,0.00,VWS V14.01,2013-03-25 00:13:00,
2013-03-24 19:18:00,31.6,29.8,29.93,NNW,329,6.0,10.0,93,0.00,,---,0.02,0.00,VWS V14.01,2013-03-25 00:18:00,
2013-03-24 19:23:00,31.6,29.8,29.94,NNW,327,6.0,12.0,93,0.00,,---,0.02,0.00,VWS V14.01,2013-03-25 00:23:00,
2013-03-24 19:28:00,31.6,29.8,29.94,North,355,3.0,11.0,93,0.00,,---,0.02,0.00,VWS V14.01,2013-03-25 00:28:00,
2013-03-24 19:33:00,31.6,29.8,29.94,NW,306,5.0,9.0,93,0.00,,---,0.02,0.00,VWS V14.01,2013-03-25 00:33:00,
2013-03-24 19:38:00,31.5,29.7,29.94,NNW,328,4.0,13.0,93,0.00,,---,0.02,0.00,VWS V14.01,2013-03-25 00:38:00,
2013-03-24 19:43:00,31.4,29.6,29.95,North,360,7.0,10.0,93,0.00,,---,0.02,0.00,VWS V14.01,2013-03-25 00:43:00,
2013-03-24 19:48:00,31.2,29.4,29.95,NW,325,6.0,11.0,93,0.00,,---,0.02,0.00,VWS V14.01,2013-03-25 00:48:00,
2013-03-24 19:53:00,31.2,29.4,29.95,North,355,5.0,10.0,93,0.00,,---,0.02,0.00,VWS V14.01,2013-03-25 00:53:00,
2013-03-24 19:58:00,31.2,29.4,29.95,NNW,335,4.0,8.0,93,0.00,,---,0.02,0.00,VWS V14.01,2013-03-25 00:58:00,
2013-03-24 20:03:00,31.2,29.4,29.95,North,360,10.0,11.0,93,0.00,,---,0.02,0.00,VWS V14.01,2013-03-25 01:03:00,
2013-03-24 20:08:00,31.2,29.4,29.95,NNW,327,3.0,13.0,93,0.00,,---,0.02,0.00,VWS V14.01,2013-03-25 01:08:00,
2013-03-24 20:13:00,31.1,29.3,29.95,NNW,327,11.0,12.0,93,0.00,,---,0.02,0.00,VWS V14.01,2013-03-25 01:13:00,
2013-03-24 20:18:00,31.1,29.3,29.96,North,11,6.0,9.0,93,0.00,,---,0.02,0.00,VWS V14.01,2013-03-25 01:18:00,
2013-03-24 20:23:00,31.1,29.3,29.96,NW,316,2.0,6.0,93,0.00,,---,0.02,0.00,VWS V14.01,2013-03-25 01:23:00,
2013-03-24 20:28:00,31.1,29.3,29.96,North,349,0.0,7.0,93,0.00,,---,0.02,0.00,VWS V14.01,2013-03-25 01:28:00,
2013-03-24 20:33:00,31.1,29.3,29.96,North,360,4.0,10.0,93,0.00,,---,0.02,0.00,VWS V14.01,2013-03-25 01:33:00,
2013-03-24 20:38:00,31.1,29.3,29.96,NW,313,0.0,6.0,93,0.00,,---,0.02,0.00,VWS V14.01,2013-03-25 01:38:00,
2013-03-24 20:43:00,31.2,29.4,29.97,NW,319,4.0,6.0,93,0.00,,---,0.02,0.00,VWS V14.01,2013-03-25 01:43:00,
2013-03-24 20:48:00,31.2,29.4,29.97,NW,313,0.0,3.0,93,0.00,,---,0.02,0.00,VWS V14.01,2013-03-25 01:48:00,
2013-03-24 20:53:00,31.2,29.4,29.97,NW,316,0.0,4.0,93,0.00,,---,0.02,0.00,VWS V14.01,2013-03-25 01:53:00,
2013-03-24 20:58:00,31.2,29.4,29.97,NW,310,4.0,5.0,93,0.00,,---,0.02,0.00,VWS V14.01,2013-03-25 01:58:00,
2013-03-24 21:03:00,31.3,29.5,29.97,NNW,331,0.0,4.0,93,0.00,,---,0.02,0.00,VWS V14.01,2013-03-25 02:03:00,
2013-03-24 21:08:00,31.3,29.5,29.98,NW,323,3.0,7.0,93,0.00,,---,0.02,0.00,VWS V14.01,2013-03-25 02:08:00,
2013-03-24 21:13:00,31.3,29.5,29.98,NNW,336,0.0,5.0,93,0.00,,---,0.02,0.00,VWS V14.01,2013-03-25 02:13:00,
2013-03-24 21:18:00,31.3,29.5,29.98,NW,326,3.0,6.0,93,0.00,,---,0.02,0.00,VWS V14.01,2013-03-25 02:18:00,
2013-03-24 21:23:00,31.2,29.4,29.98,North,355,2.0,8.0,93,0.00,,---,0.02,0.00,VWS V14.01,2013-03-25 02:23:00,
2013-03-24 21:28:00,31.2,29.4,29.98,NW,325,3.0,9.0,93,0.00,,---,0.02,0.00,VWS V14.01,2013-03-25 02:28:00,
2013-03-24 21:33:00,31.2,29.4,29.98,NNW,329,5.0,8.0,93,0.00,,---,0.02,0.00,VWS V14.01,2013-03-25 02:33:00,
2013-03-24 21:38:00,31.2,29.4,29.99,North,355,5.0,6.0,93,0.00,,---,0.02,0.00,VWS V14.01,2013-03-25 02:38:00,
2013-03-24 21:43:00,31.1,29.3,29.99,NW,315,0.0,4.0,93,0.00,,---,0.02,0.00,VWS V14.01,2013-03-25 02:43:00,
2013-03-24 21:48:00,31.1,29.3,29.99,NNW,342,0.0,4.0,93,0.00,,---,0.02,0.00,VWS V14.01,2013-03-25 02:48:00,
2013-03-24 21:53:00,31.1,29.3,29.99,NW,319,3.0,9.0,93,0.00,,---,0.02,0.00,VWS V14.01,2013-03-25 02:53:00,
2013-03-24 21:58:00,31.0,29.2,29.99,NW,325,5.0,7.0,93,0.00,,---,0.02,0.00,VWS V14.01,2013-03-25 02:58:00,
2013-03-24 22:03:00,31.0,29.2,29.99,NNW,327,1.0,5.0,93,0.00,,---,0.02,0.00,VWS V14.01,2013-03-25 03:03:00,
2013-03-24 22:08:00,31.0,29.2,29.99,NW,311,0.0,4.0,93,0.00,,---,0.02,0.00,VWS V14.01,2013-03-25 03:08:00,
2013-03-24 22:13:00,31.0,29.2,29.99,NW,319,0.0,6.0,93,0.00,,---,0.02,0.00,VWS V14.01,2013-03-25 03:13:00,
2013-03-24 22:18:00,31.0,29.2,29.99,WNW,298,5.0,10.0,93,0.00,,---,0.02,0.00,VWS V14.01,2013-03-25 03:18:00,
2013-03-24 22:23:00,31.0,29.2,29.99,NW,310,0.0,8.0,93,0.00,,---,0.02,0.00,VWS V14.01,2013-03-25 03:23:00,
2013-03-24 22:28:00,30.9,29.1,30.00,NW,321,4.0,9.0,93,0.00,,---,0.02,0.00,VWS V14.01,2013-03-25 03:28:00,
2013-03-24 22:33:00,30.9,29.1,30.00,NNW,338,5.0,8.0,93,0.00,,---,0.02,0.00,VWS V14.01,2013-03-25 03:33:00,
2013-03-24 22:38:00,30.9,29.1,30.00,NW,318,2.0,6.0,93,0.00,,---,0.02,0.00,VWS V14.01,2013-03-25 03:38:00,
2013-03-24 22:43:00,30.8,29.0,30.00,NW,316,3.0,10.0,93,0.00,,---,0.02,0.00,VWS V14.01,2013-03-25 03:43:00,
2013-03-24 22:48:00,30.8,29.0,30.00,NW,320,0.0,5.0,93,0.00,,---,0.02,0.00,VWS V14.01,2013-03-25 03:48:00,
2013-03-24 22:53:00,30.8,29.0,30.00,West,281,0.0,6.0,93,0.00,,---,0.02,0.00,VWS V14.01,2013-03-25 03:53:00,
2013-03-24 22:58:00,30.8,29.0,30.00,NW,326,3.0,9.0,93,0.00,,---,0.02,0.00,VWS V14.01,2013-03-25 03:58:00,
2013-03-24 23:00:00,30.8,29.0,30.00,WNW,302,5.0,9.0,93,0.00,,---,0.02,0.00,VWS V14.01,2013-03-25 04:00:00,
2013-03-24 23:05:00,30.7,28.9,30.00,NW,321,3.0,7.0,93,0.00,,---,0.02,0.00,VWS V14.01,2013-03-25 04:05:00,
2013-03-24 23:10:00,30.7,28.9,30.00,NNW,338,2.0,9.0,93,0.00,,---,0.02,0.00,VWS V14.01,2013-03-25 04:10:00,
2013-03-24 23:15:00,30.6,28.8,30.00,NW,320,4.0,10.0,93,0.00,,---,0.02,0.00,VWS V14.01,2013-03-25 04:15:00,
2013-03-24 23:20:00,30.6,28.8,30.00,NW,309,1.0,10.0,93,0.00,,---,0.02,0.00,VWS V14.01,2013-03-25 04:20:00,
2013-03-24 23:25:00,30.5,28.7,30.00,NW,317,0.0,4.0,93,0.00,,---,0.02,0.00,VWS V14.01,2013-03-25 04:25:00,
2013-03-24 23:30:00,30.5,28.7,29.99,NW,316,2.0,5.0,93,0.00,,---,0.02,0.00,VWS V14.01,2013-03-25 04:30:00,
2013-03-24 23:35:00,30.5,28.7,30.00,NW,316,1.0,3.0,93,0.00,,---,0.02,0.00,VWS V14.01,2013-03-25 04:35:00,
2013-03-24 23:40:00,30.5,28.7,30.00,NW,314,0.0,4.0,93,0.00,,---,0.02,0.00,VWS V14.01,2013-03-25 04:40:00,
2013-03-24 23:45:00,30.6,28.8,30.00,WNW,300,0.0,4.0,93,0.00,,---,0.02,0.00,VWS V14.01,2013-03-25 04:45:00,
2013-03-24 23:50:00,30.6,28.8,30.00,NW,305,2.0,4.0,93,0.00,,---,0.02,0.00,VWS V14.01,2013-03-25 04:50:00,
2013-03-24 23:55:00,30.6,28.8,30.00,NW,325,0.0,5.0,93,0.00,,---,0.02,0.00,VWS V14.01,2013-03-25 04:55:00,